KADU

Audubon County Airport

Audubon, Iowa, USA
METAR KADU 221815Z AUTO 09008G15KT 10SM SCT100 17/M03 A3022 RMK AO2
Observed Flight Rules
Apr-22 @ 18:15 UTC (7 minutes ago) Visual Flight Rules
Wind Visibility Clouds
90° at 8 knots
 Gusting to 15 knots
10 miles
  • Scattered at 10,000' AGL
Temperatures Readings
Current 17°C / 63°F
Dewpoint -3°C / 27°F
Humidity 25%
Altimeter 30.22" Hg
Pressure 1023 hPa
Elevation 392
METAR KADU 221815Z AUTO 09008G15KT 10SM SCT100 17/M03 A3022 RMK AO2
Observed Flight Rules
Apr-22 @ 18:15 UTC
(7 minutes ago)
VFR
Wind Visibility
90° at 8 knots
 Gusting to 15 knots
10 miles
Clouds
  • Scattered at 10,000' AGL
Temperature Dewpoint
17°C / 63°F -3°C / 27°F
Humidity Altimeter Pressure
25% 30.22" Hg 1023 hPa